Kezdőlap
METAR-TAF:

METAR-TAF

Repülőterek :

Valdivia, Chile

földrajzi szélesség: 39-37S, földrajzi hosszúság: 073-05W, magasság: 19 m

Jelenlegi meteorológiai megfigyelések

A jelentés 9 perccel ezelõtt készült, 15:00 UTC
Különbözõ irányokból fújó szél 6 kt
Hőmérséklet 15°C
Páratartalom 72%
Légköri nyomás 1021 hPa
Látótávolság 10 km, vagy több
Szakadozott felhőzet 2600 lábon

METAR: SCVD 061500Z VRB06KT 9999 BKN026 15/10 Q1021

Idő: 12:09 (15:09 UTC)


TAF: hiányzik

Meteorológiai megfigyelések és előrejelzések több, mint 4000 repülőtéren (METAR és TAF jelentéseket).

A térképen piros és sárga pontok jelzik az elérhető meteorológiai állomásokat.

Mozgassa az egeret a pont fölött, hogy megjelenjen az állomás neve.

Azután kattintson az időjárási megfigyelések és előrejelzések megtekintéséhez.

A térkép megváltoztatása: kattintson a fekete keresztel jelölt zöld gombra ráközelítéshez, a vonallal jelölt zöld gombra távolításhoz, vagy a zöld nyilakra a szomszédos térképek eléréséhez.


METAR-TAF: